createdAt,value
2023-04-22T00:04:05.001Z,8.02
2023-04-22T00:09:06.900Z,10.70
2023-04-22T00:14:08.416Z,9.50
2023-04-22T00:19:09.987Z,8.50
2023-04-22T00:24:11.502Z,11.57
2023-04-22T00:29:13.015Z,11.57
2023-04-22T00:34:14.535Z,9.82
2023-04-22T00:39:16.183Z,14.98
2023-04-22T00:44:18.558Z,12.20
2023-04-22T00:49:20.515Z,14.70
2023-04-22T00:54:21.977Z,13.23
2023-04-22T00:59:25.364Z,14.82
2023-04-22T01:04:26.953Z,15.02
2023-04-22T01:09:28.890Z,12.38
2023-04-22T01:14:30.501Z,13.75
2023-04-22T01:19:32.950Z,13.43
2023-04-22T01:24:34.774Z,10.77
2023-04-22T01:29:38.314Z,13.10
2023-04-22T01:34:40.243Z,9.80
2023-04-22T01:39:41.962Z,9.80
2023-04-22T01:44:43.648Z,11.52
2023-04-22T01:49:45.298Z,13.90
2023-04-22T01:54:48.396Z,14.80
2023-04-22T01:59:49.926Z,13.95
2023-04-22T02:04:51.583Z,13.13
2023-04-22T02:09:53.385Z,16.55
2023-04-22T02:14:54.853Z,17.15
2023-04-22T02:19:56.442Z,16.70
2023-04-22T02:24:58.219Z,17.52
2023-04-22T02:29:59.710Z,16.95
2023-04-22T02:35:02.017Z,15.38
2023-04-22T02:40:04.365Z,18.25
2023-04-22T02:45:06.504Z,16.83
2023-04-22T02:50:08.389Z,17.98
2023-04-22T02:55:10.082Z,16.52
2023-04-22T03:00:11.846Z,16.63
2023-04-22T03:05:13.385Z,18.88
2023-04-22T03:10:15.155Z,17.88
2023-04-22T03:15:19.614Z,17.05
2023-04-22T03:20:22.775Z,15.82
2023-04-22T03:25:25.395Z,17.52
2023-04-22T03:30:26.970Z,19.92
2023-04-22T03:35:28.448Z,22.23
2023-04-22T03:40:29.913Z,18.42
2023-04-22T03:45:31.538Z,20.42
2023-04-22T03:50:33.499Z,19.95
2023-04-22T03:55:35.257Z,21.42
2023-04-22T04:00:36.828Z,22.42
2023-04-22T04:05:38.465Z,21.55
2023-04-22T04:10:40.102Z,21.85
2023-04-22T04:15:41.992Z,23.10
2023-04-22T04:20:43.485Z,21.45
2023-04-22T04:25:45.487Z,22.80
2023-04-22T04:30:47.132Z,23.67
2023-04-22T04:35:48.801Z,23.98
2023-04-22T04:40:50.884Z,25.33
2023-04-22T04:45:52.754Z,24.25
2023-04-22T04:50:54.372Z,25.20
2023-04-22T04:55:55.911Z,24.92
2023-04-22T05:00:57.379Z,22.17
2023-04-22T05:05:59.022Z,25.30
2023-04-22T05:11:00.526Z,23.80
2023-04-22T05:16:02.006Z,26.13
2023-04-22T05:21:04.302Z,25.70
2023-04-22T05:26:06.025Z,29.52
2023-04-22T05:31:07.553Z,31.75
2023-04-22T05:36:09.062Z,23.75
2023-04-22T05:41:10.546Z,25.27
2023-04-22T05:46:12.068Z,32.85
2023-04-22T05:51:13.689Z,25.90
2023-04-22T05:56:15.425Z,30.15
2023-04-22T06:01:17.050Z,28.65
2023-04-22T06:06:18.856Z,26.23
2023-04-22T06:11:20.638Z,29.33
2023-04-22T06:16:23.225Z,30.67
2023-04-22T06:21:24.823Z,30.40
2023-04-22T06:26:26.895Z,31.83
2023-04-22T06:31:28.474Z,33.45
2023-04-22T06:36:30.914Z,36.85
2023-04-22T06:41:35.231Z,36.72
2023-04-22T06:46:38.187Z,39.25
2023-04-22T06:51:39.753Z,37.67
2023-04-22T06:56:41.308Z,38.50
2023-04-22T07:01:42.893Z,34.88
2023-04-22T07:06:44.615Z,36.33
2023-04-22T07:11:46.374Z,38.67
2023-04-22T07:16:48.069Z,33.50
2023-04-22T07:21:49.783Z,37.05
2023-04-22T07:26:51.314Z,36.05
2023-04-22T07:31:53.021Z,33.45
2023-04-22T07:36:54.619Z,33.58
2023-04-22T07:41:57.716Z,33.15
2023-04-22T07:46:59.602Z,31.13
2023-04-22T07:52:01.191Z,32.08
2023-04-22T07:57:02.899Z,32.38
2023-04-22T08:02:04.525Z,38.45
2023-04-22T08:07:17.063Z,36.17
2023-04-22T08:12:27.807Z,39.25
2023-04-22T08:17:29.356Z,35.40
2023-04-22T08:22:32.079Z,42.28
2023-04-22T08:27:33.650Z,41.08
2023-04-22T08:32:35.323Z,39.75
2023-04-22T08:37:36.994Z,33.25
2023-04-22T08:42:38.619Z,32.28
2023-04-22T08:47:40.590Z,31.98
2023-04-22T08:52:43.540Z,32.92
2023-04-22T08:57:45.457Z,33.05
2023-04-22T09:02:48.318Z,35.05
2023-04-22T09:07:50.056Z,32.55
2023-04-22T09:12:52.032Z,33.53
2023-04-22T09:17:54.062Z,33.95
2023-04-22T09:22:57.452Z,31.38
2023-04-22T09:27:59.451Z,30.58
2023-04-22T09:33:04.237Z,34.05
2023-04-22T09:38:09.112Z,32.28
2023-04-22T09:43:11.558Z,27.70
2023-04-22T09:48:15.549Z,28.20
2023-04-22T09:53:19.625Z,29.70
2023-04-22T09:58:23.831Z,26.60
2023-04-22T10:03:25.857Z,22.90
2023-04-22T10:08:28.364Z,27.13
2023-04-22T10:13:29.881Z,21.48
2023-04-22T10:18:33.124Z,23.90
2023-04-22T10:23:34.702Z,20.60
2023-04-22T10:28:41.933Z,17.65
2023-04-22T10:33:43.458Z,17.77
2023-04-22T10:38:50.976Z,15.68
2023-04-22T10:44:00.405Z,13.30
2023-04-22T10:49:13.046Z,20.85
2023-04-22T10:54:31.858Z,21.40
2023-04-22T10:59:57.668Z,16.52
2023-04-22T11:05:19.384Z,14.70
2023-04-22T11:10:32.790Z,16.88
2023-04-22T11:15:37.436Z,15.00
2023-04-22T11:20:39.069Z,14.40
2023-04-22T11:25:40.763Z,8.93
2023-04-22T11:30:42.350Z,9.70
2023-04-22T11:35:44.078Z,14.43
2023-04-22T11:40:46.850Z,14.35
2023-04-22T11:45:48.873Z,15.40
2023-04-22T11:51:07.747Z,10.48
2023-04-22T11:56:09.414Z,9.75
2023-04-22T12:01:13.708Z,10.60
2023-04-22T12:06:16.540Z,9.73
2023-04-22T12:11:18.071Z,8.30
2023-04-22T12:16:20.496Z,10.48
2023-04-22T12:21:24.634Z,13.20
2023-04-22T12:26:27.611Z,8.18
2023-04-22T12:31:29.476Z,17.25
2023-04-22T12:36:32.501Z,21.00
2023-04-22T12:41:34.030Z,24.95
2023-04-22T12:46:36.336Z,27.27
2023-04-22T12:51:37.859Z,25.88
2023-04-22T12:56:39.329Z,27.15
2023-04-22T13:01:42.591Z,33.28
2023-04-22T13:06:44.418Z,31.30
2023-04-22T13:11:49.162Z,33.05
2023-04-22T13:16:51.952Z,32.15
2023-04-22T13:21:53.454Z,31.65
2023-04-22T13:26:54.957Z,37.58
2023-04-22T13:31:56.575Z,36.42
2023-04-22T13:36:58.365Z,25.02
2023-04-22T13:42:00.306Z,25.30
2023-04-22T13:47:02.835Z,30.00
2023-04-22T13:52:04.455Z,28.17
2023-04-22T13:57:05.996Z,34.88
2023-04-22T14:02:07.911Z,30.52
2023-04-22T14:07:09.438Z,29.27
2023-04-22T14:12:11.844Z,31.60
2023-04-22T14:17:13.509Z,33.30
2023-04-22T14:22:15.046Z,32.63
2023-04-22T14:27:16.515Z,30.80
2023-04-22T14:32:19.335Z,30.77
2023-04-22T14:37:21.894Z,29.38
2023-04-22T14:42:25.469Z,25.48
2023-04-22T14:47:27.034Z,29.15
2023-04-22T14:52:28.614Z,29.52
2023-04-22T14:57:30.412Z,29.48
2023-04-22T15:02:33.156Z,40.33
2023-04-22T15:07:34.735Z,41.55
2023-04-22T15:12:36.448Z,47.67
2023-04-22T15:17:37.983Z,46.92
2023-04-22T15:22:42.809Z,50.90
2023-04-22T15:27:44.343Z,48.92
2023-04-22T15:32:45.826Z,55.28
2023-04-22T15:37:47.450Z,52.90
2023-04-22T15:42:48.984Z,49.60
2023-04-22T15:47:52.295Z,50.85
2023-04-22T15:52:54.323Z,51.65
2023-04-22T15:57:55.916Z,39.63
2023-04-22T16:02:58.262Z,39.83
2023-04-22T16:07:59.915Z,39.20
2023-04-22T16:13:01.434Z,31.15
2023-04-22T16:18:04.700Z,32.38
2023-04-22T16:23:06.364Z,38.55
2023-04-22T16:28:10.375Z,30.65
2023-04-22T16:33:14.471Z,23.40
2023-04-22T16:38:16.556Z,21.70
2023-04-22T16:43:18.106Z,22.25
2023-04-22T16:48:19.632Z,22.17
2023-04-22T16:53:21.194Z,19.65
2023-04-22T16:58:22.876Z,22.40
2023-04-22T17:03:25.282Z,23.35
2023-04-22T17:08:26.860Z,24.63
2023-04-22T17:13:29.426Z,24.83
2023-04-22T17:18:31.048Z,24.83
2023-04-22T17:23:32.536Z,23.27
2023-04-22T17:28:34.267Z,22.77
2023-04-22T17:33:36.750Z,28.70
2023-04-22T17:38:38.306Z,28.48
2023-04-22T17:43:40.499Z,30.27
2023-04-22T17:48:42.370Z,30.98
2023-04-22T17:53:43.924Z,34.13
2023-04-22T17:58:45.594Z,34.92
2023-04-22T18:03:47.485Z,32.92
2023-04-22T18:08:49.279Z,34.70
2023-04-22T18:13:50.805Z,39.83
2023-04-22T18:18:52.336Z,40.03
2023-04-22T18:23:54.132Z,42.35
2023-04-22T18:28:55.744Z,48.03
2023-04-22T18:33:57.285Z,48.53
2023-04-22T18:38:58.802Z,60.70
2023-04-22T18:44:00.406Z,62.70
2023-04-22T18:49:01.947Z,51.70
2023-04-22T18:54:03.648Z,57.53
2023-04-22T18:59:05.624Z,79.90
2023-04-22T19:04:08.014Z,60.55
2023-04-22T19:09:09.684Z,58.30
2023-04-22T19:14:13.615Z,63.50
2023-04-22T19:19:15.126Z,63.97
2023-04-22T19:24:16.705Z,60.65
2023-04-22T19:29:18.304Z,57.00
2023-04-22T19:34:19.795Z,74.72
2023-04-22T19:39:21.477Z,71.72
2023-04-22T19:44:23.171Z,56.72
2023-04-22T19:49:24.833Z,66.35
2023-04-22T19:54:28.182Z,72.90
2023-04-22T19:59:31.589Z,69.68
2023-04-22T20:04:33.706Z,58.47
2023-04-22T20:09:36.385Z,60.17
2023-04-22T20:14:39.092Z,61.13
2023-04-22T20:19:40.843Z,53.15
2023-04-22T20:24:43.981Z,65.18
2023-04-22T20:29:46.589Z,59.75
2023-04-22T20:34:48.357Z,68.60
2023-04-22T20:39:51.207Z,70.90
2023-04-22T20:44:52.711Z,70.60
2023-04-22T20:49:54.169Z,60.63
2023-04-22T20:54:56.550Z,55.03
2023-04-22T20:59:58.275Z,55.63
2023-04-22T21:05:00.514Z,49.38
2023-04-22T21:10:02.287Z,53.80
2023-04-22T21:15:04.188Z,47.65
2023-04-22T21:20:06.862Z,50.38
2023-04-22T21:25:09.148Z,53.40
2023-04-22T21:30:11.496Z,58.20
2023-04-22T21:35:13.050Z,65.30
2023-04-22T21:40:14.715Z,62.15
2023-04-22T21:45:17.345Z,55.55
2023-04-22T21:50:20.755Z,58.53
2023-04-22T21:55:22.530Z,53.80
2023-04-22T22:00:24.977Z,60.45
2023-04-22T22:05:26.479Z,52.33
2023-04-22T22:10:28.072Z,55.85
2023-04-22T22:15:29.677Z,56.47
2023-04-22T22:20:31.715Z,63.35
2023-04-22T22:25:33.288Z,57.10
2023-04-22T22:30:34.763Z,65.95
2023-04-22T22:35:36.329Z,59.42
2023-04-22T22:40:37.837Z,67.15
2023-04-22T22:45:39.832Z,64.20
2023-04-22T22:50:41.425Z,68.35
2023-04-22T22:55:42.971Z,71.63
2023-04-22T23:00:44.599Z,70.70
2023-04-22T23:05:46.091Z,72.50
2023-04-22T23:10:47.605Z,86.10
2023-04-22T23:15:49.117Z,98.07
2023-04-22T23:20:51.833Z,108.90
2023-04-22T23:25:53.606Z,117.25
2023-04-22T23:30:56.216Z,126.15
2023-04-22T23:36:00.022Z,147.18
2023-04-22T23:41:01.485Z,131.60
2023-04-22T23:46:03.040Z,156.23
2023-04-22T23:51:04.671Z,132.13
2023-04-22T23:56:06.638Z,151.20
